createdAt,value
2018-09-14T00:01:58.075Z,15.10
2018-09-14T00:04:26.296Z,15.03
2018-09-14T00:06:54.524Z,14.85
2018-09-14T00:09:22.725Z,14.78
2018-09-14T00:11:50.973Z,14.81
2018-09-14T00:14:19.198Z,14.77
2018-09-14T00:16:47.409Z,14.69
2018-09-14T00:19:15.676Z,14.69
2018-09-14T00:21:43.892Z,14.70
2018-09-14T00:24:12.144Z,14.61
2018-09-14T00:26:40.361Z,14.58
2018-09-14T00:29:08.597Z,14.61
2018-09-14T00:31:36.820Z,14.59
2018-09-14T00:34:05.061Z,14.57
2018-09-14T00:36:33.269Z,14.55
2018-09-14T00:39:01.503Z,14.55
2018-09-14T00:41:29.725Z,14.56
2018-09-14T00:43:57.964Z,14.54
2018-09-14T00:46:26.181Z,14.58
2018-09-14T00:48:54.417Z,14.64
2018-09-14T00:51:22.625Z,14.52
2018-09-14T00:53:50.887Z,14.51
2018-09-14T00:56:19.158Z,14.55
2018-09-14T00:58:47.489Z,14.52
2018-09-14T01:01:15.708Z,14.46
2018-09-14T01:03:43.940Z,14.40
2018-09-14T01:06:12.185Z,14.35
2018-09-14T01:08:40.444Z,14.34
2018-09-14T01:11:08.649Z,14.32
2018-09-14T01:13:36.890Z,14.29
2018-09-14T01:16:05.124Z,14.32
2018-09-14T01:18:33.374Z,14.30
2018-09-14T01:21:01.592Z,14.36
2018-09-14T01:23:29.824Z,14.32
2018-09-14T01:25:58.040Z,14.27
2018-09-14T01:28:26.284Z,14.26
2018-09-14T01:30:54.503Z,14.14
2018-09-14T01:33:22.758Z,14.06
2018-09-14T01:35:56.334Z,14.07
2018-09-14T01:38:24.584Z,14.10
2018-09-14T01:40:52.801Z,14.05
2018-09-14T01:43:21.063Z,14.00
2018-09-14T01:45:49.317Z,14.07
2018-09-14T01:48:17.553Z,14.11
2018-09-14T01:50:45.793Z,14.13
2018-09-14T01:53:14.035Z,14.14
2018-09-14T01:55:42.277Z,14.12
2018-09-14T01:58:10.547Z,14.05
2018-09-14T02:00:38.768Z,14.02
2018-09-14T02:03:06.996Z,14.08
2018-09-14T02:05:35.230Z,14.05
2018-09-14T02:08:03.465Z,14.06
2018-09-14T02:10:31.726Z,14.06
2018-09-14T02:12:59.949Z,14.00
2018-09-14T02:15:28.196Z,14.03
2018-09-14T02:17:56.409Z,14.06
2018-09-14T02:20:24.635Z,14.03
2018-09-14T02:22:52.871Z,13.90
2018-09-14T02:25:21.104Z,13.92
2018-09-14T02:27:49.325Z,13.95
2018-09-14T02:30:17.556Z,13.94
2018-09-14T02:32:45.761Z,13.92
2018-09-14T02:35:14.029Z,13.90
2018-09-14T02:37:42.241Z,13.86
2018-09-14T02:40:10.452Z,13.85
2018-09-14T02:42:38.680Z,13.87
2018-09-14T02:45:06.952Z,13.87
2018-09-14T02:47:35.156Z,13.85
2018-09-14T02:50:03.407Z,13.79
2018-09-14T02:52:31.636Z,13.68
2018-09-14T02:54:59.883Z,13.67
2018-09-14T02:57:28.089Z,13.68
2018-09-14T02:59:56.348Z,13.73
2018-09-14T03:02:24.588Z,13.75
2018-09-14T03:04:52.848Z,13.77
2018-09-14T03:07:21.085Z,13.76
2018-09-14T03:09:49.344Z,13.75
2018-09-14T03:12:17.573Z,13.70
2018-09-14T03:14:45.811Z,13.65
2018-09-14T03:17:14.034Z,13.66
2018-09-14T03:19:42.273Z,13.65
2018-09-14T03:22:10.492Z,13.64
2018-09-14T03:24:38.750Z,13.64
2018-09-14T03:27:07.184Z,13.68
2018-09-14T03:29:35.412Z,13.62
2018-09-14T03:32:03.692Z,13.61
2018-09-14T03:34:31.944Z,13.56
2018-09-14T03:37:00.189Z,13.47
2018-09-14T03:39:28.438Z,13.44
2018-09-14T03:41:56.698Z,13.43
2018-09-14T03:44:24.915Z,13.45
2018-09-14T03:46:53.160Z,13.48
2018-09-14T03:49:21.433Z,13.47
2018-09-14T03:51:50.105Z,13.45
2018-09-14T03:54:18.370Z,13.45
2018-09-14T03:56:46.629Z,13.46
2018-09-14T03:59:14.861Z,13.45
2018-09-14T04:01:43.101Z,13.41
2018-09-14T04:04:11.329Z,13.40
2018-09-14T04:06:39.564Z,13.37
2018-09-14T04:09:09.025Z,13.36
2018-09-14T04:11:37.276Z,13.40
2018-09-14T04:14:05.622Z,13.39
2018-09-14T04:16:33.884Z,13.35
2018-09-14T04:19:03.209Z,13.29
2018-09-14T04:21:32.663Z,13.27
2018-09-14T04:24:00.941Z,13.26
2018-09-14T04:26:29.536Z,13.28
2018-09-14T04:28:58.169Z,13.28
2018-09-14T04:31:26.473Z,13.23
2018-09-14T04:33:54.722Z,13.19
2018-09-14T04:36:23.029Z,13.18
2018-09-14T04:38:51.261Z,13.15
2018-09-14T04:41:19.725Z,13.10
2018-09-14T04:43:47.952Z,13.12
2018-09-14T04:46:16.160Z,13.06
2018-09-14T04:48:44.405Z,13.04
2018-09-14T04:51:13.033Z,13.07
2018-09-14T04:53:41.278Z,13.09
2018-09-14T04:56:10.100Z,13.04
2018-09-14T04:58:38.477Z,13.00
2018-09-14T05:01:06.752Z,12.94
2018-09-14T05:03:35.241Z,12.81
2018-09-14T05:06:04.292Z,12.74
2018-09-14T05:08:32.542Z,12.65
2018-09-14T05:11:00.763Z,12.61
2018-09-14T05:13:28.988Z,12.74
2018-09-14T05:15:57.200Z,12.82
2018-09-14T05:18:28.243Z,12.84
2018-09-14T05:20:56.458Z,12.83
2018-09-14T05:23:24.696Z,12.81
2018-09-14T05:25:52.960Z,12.82
2018-09-14T05:28:21.225Z,12.94
2018-09-14T05:30:49.462Z,13.01
2018-09-14T05:33:17.708Z,13.06
2018-09-14T05:35:46.013Z,13.09
2018-09-14T05:38:14.328Z,13.08
2018-09-14T05:40:42.549Z,13.10
2018-09-14T05:43:10.752Z,13.11
2018-09-14T05:45:39.707Z,12.98
2018-09-14T05:48:07.923Z,12.94
2018-09-14T05:50:36.172Z,12.95
2018-09-14T05:53:04.408Z,12.97
2018-09-14T05:55:32.693Z,12.86
2018-09-14T05:58:00.990Z,12.76
2018-09-14T06:00:29.576Z,12.85
2018-09-14T06:02:57.820Z,12.91
2018-09-14T06:05:26.100Z,12.92
2018-09-14T06:07:54.417Z,12.91
2018-09-14T06:10:22.653Z,12.84
2018-09-14T06:12:50.873Z,12.95
2018-09-14T06:15:19.145Z,13.04
2018-09-14T06:17:47.373Z,13.13
2018-09-14T06:20:15.641Z,13.13
2018-09-14T06:22:43.930Z,13.34
2018-09-14T06:25:12.173Z,13.41
2018-09-14T06:27:40.404Z,13.39
2018-09-14T06:30:08.693Z,13.54
2018-09-14T06:32:36.941Z,13.59
2018-09-14T06:35:05.189Z,13.68
2018-09-14T06:37:33.450Z,13.76
2018-09-14T06:40:01.673Z,13.80
2018-09-14T06:42:29.916Z,13.81
2018-09-14T06:44:58.232Z,13.88
2018-09-14T06:47:26.497Z,13.92
2018-09-14T06:49:54.728Z,13.97
2018-09-14T06:52:23.068Z,13.94
2018-09-14T06:54:51.406Z,13.94
2018-09-14T06:57:19.672Z,14.08
2018-09-14T06:59:47.932Z,14.21
2018-09-14T07:02:16.213Z,14.35
2018-09-14T07:04:44.453Z,14.50
2018-09-14T07:07:12.801Z,14.66
2018-09-14T07:09:41.039Z,14.86
2018-09-14T07:12:09.305Z,14.93
2018-09-14T07:14:37.552Z,15.01
2018-09-14T07:17:07.005Z,15.11
2018-09-14T07:19:36.827Z,15.14
2018-09-14T07:22:06.389Z,15.30
2018-09-14T07:24:36.742Z,15.39
2018-09-14T07:27:07.085Z,15.46
2018-09-14T07:29:36.647Z,15.60
2018-09-14T07:32:07.252Z,15.69
2018-09-14T07:34:38.327Z,15.79
2018-09-14T07:37:08.040Z,15.90
2018-09-14T07:39:37.902Z,15.95
2018-09-14T07:42:08.293Z,16.05
2018-09-14T07:44:38.440Z,16.07
2018-09-14T07:47:09.939Z,16.18
2018-09-14T07:49:39.579Z,16.30
2018-09-14T07:52:09.167Z,16.33
2018-09-14T07:54:39.409Z,16.38
2018-09-14T07:57:09.508Z,16.46
2018-09-14T07:59:41.142Z,16.53
2018-09-14T08:02:10.743Z,16.61
2018-09-14T08:04:41.209Z,16.67
2018-09-14T08:07:11.160Z,16.74
2018-09-14T08:09:40.740Z,16.83
2018-09-14T08:12:11.173Z,16.96
2018-09-14T08:14:40.688Z,17.11
2018-09-14T08:17:11.001Z,17.41
2018-09-14T08:19:40.667Z,17.52
2018-09-14T08:22:10.719Z,17.50
2018-09-14T08:24:42.308Z,17.54
2018-09-14T08:27:13.202Z,17.57
2018-09-14T08:29:41.548Z,17.72
2018-09-14T08:32:09.784Z,17.75
2018-09-14T08:34:38.041Z,17.68
2018-09-14T08:37:06.266Z,17.71
2018-09-14T08:39:34.528Z,17.82
2018-09-14T08:42:02.768Z,17.90
2018-09-14T08:44:31.045Z,17.85
2018-09-14T08:46:59.320Z,17.91
2018-09-14T08:49:27.561Z,17.94
2018-09-14T08:51:55.836Z,17.95
2018-09-14T08:54:24.084Z,18.05
2018-09-14T08:56:52.317Z,18.13
2018-09-14T08:59:20.588Z,18.27
2018-09-14T09:01:48.833Z,18.38
2018-09-14T09:04:17.072Z,18.40
2018-09-14T09:06:45.333Z,18.47
2018-09-14T09:09:13.968Z,18.59
2018-09-14T09:11:42.829Z,18.64
2018-09-14T09:14:11.062Z,18.75
2018-09-14T09:16:40.120Z,18.79
2018-09-14T09:19:08.670Z,18.87
2018-09-14T09:21:37.058Z,18.98
2018-09-14T09:24:05.316Z,19.03
2018-09-14T09:26:33.590Z,19.08
2018-09-14T09:29:01.873Z,19.18
2018-09-14T09:31:30.129Z,19.26
2018-09-14T09:33:58.364Z,19.35
2018-09-14T09:36:26.633Z,19.50
2018-09-14T09:38:54.984Z,19.55
2018-09-14T09:41:23.244Z,19.69
2018-09-14T09:43:51.486Z,19.74
2018-09-14T09:46:19.776Z,19.82
2018-09-14T09:48:48.317Z,19.85
2018-09-14T09:51:16.901Z,19.97
2018-09-14T09:53:45.123Z,20.05
2018-09-14T09:56:13.413Z,20.09
2018-09-14T09:58:41.693Z,20.21
2018-09-14T10:01:15.342Z,20.24
2018-09-14T10:03:44.296Z,20.32
2018-09-14T10:06:17.840Z,20.20
2018-09-14T10:08:46.093Z,20.27
2018-09-14T10:11:14.329Z,20.22
2018-09-14T10:13:42.614Z,20.31
2018-09-14T10:16:10.927Z,20.39
2018-09-14T10:18:39.196Z,20.40
2018-09-14T10:21:07.463Z,20.49
2018-09-14T10:23:35.751Z,20.54
2018-09-14T10:26:04.072Z,20.63
2018-09-14T10:28:32.318Z,20.74
2018-09-14T10:31:00.561Z,20.72
2018-09-14T10:33:28.820Z,20.88
2018-09-14T10:35:57.144Z,20.97
2018-09-14T10:38:25.656Z,20.96
2018-09-14T10:40:53.982Z,20.91
2018-09-14T10:43:22.169Z,20.92
2018-09-14T10:45:50.409Z,21.13
2018-09-14T10:48:18.657Z,21.16
2018-09-14T10:50:46.928Z,21.14
2018-09-14T10:53:15.421Z,21.18
2018-09-14T10:55:43.790Z,21.06
2018-09-14T10:58:12.083Z,20.86
2018-09-14T11:00:40.391Z,20.91
2018-09-14T11:03:08.616Z,20.60
2018-09-14T11:05:36.844Z,21.14
2018-09-14T11:08:05.089Z,21.33
2018-09-14T11:10:33.352Z,21.35
2018-09-14T11:13:01.744Z,21.47
2018-09-14T11:15:29.864Z,21.60
2018-09-14T11:17:58.112Z,21.66
2018-09-14T11:20:26.426Z,21.75
2018-09-14T11:22:55.205Z,21.72
2018-09-14T11:25:23.866Z,21.66
2018-09-14T11:27:52.476Z,21.63
2018-09-14T11:30:21.272Z,21.63
2018-09-14T11:32:49.673Z,21.72
2018-09-14T11:35:17.965Z,21.70
2018-09-14T11:37:46.345Z,21.62
2018-09-14T11:40:14.563Z,21.66
2018-09-14T11:42:42.805Z,21.69
2018-09-14T11:45:11.107Z,21.83
2018-09-14T11:47:39.304Z,21.71
2018-09-14T11:50:07.556Z,21.82
2018-09-14T11:52:35.844Z,21.82
2018-09-14T11:55:04.089Z,21.94
2018-09-14T11:57:32.318Z,21.91
2018-09-14T12:00:00.654Z,21.90
2018-09-14T12:02:28.930Z,21.71
2018-09-14T12:04:57.237Z,21.81
2018-09-14T12:07:25.515Z,21.85
2018-09-14T12:09:53.949Z,21.84
2018-09-14T12:12:22.385Z,21.99
2018-09-14T12:14:50.697Z,22.11
2018-09-14T12:17:19.165Z,21.98
2018-09-14T12:19:47.585Z,21.97
2018-09-14T12:22:15.888Z,22.02
2018-09-14T12:24:44.117Z,22.10
2018-09-14T12:27:12.422Z,22.21
2018-09-14T12:29:40.667Z,22.25
2018-09-14T12:32:09.905Z,22.30
2018-09-14T12:34:38.172Z,22.27
2018-09-14T12:37:06.673Z,22.39
2018-09-14T12:39:34.944Z,22.49
2018-09-14T12:42:03.363Z,22.54
2018-09-14T12:44:31.621Z,22.55
2018-09-14T12:46:59.887Z,22.59
2018-09-14T12:49:28.425Z,22.62
2018-09-14T12:51:56.786Z,22.57
2018-09-14T12:54:25.062Z,22.61
2018-09-14T12:56:53.301Z,22.59
2018-09-14T12:59:21.561Z,22.68
2018-09-14T13:01:49.824Z,22.62
2018-09-14T13:04:18.121Z,22.55
2018-09-14T13:06:46.355Z,22.51
2018-09-14T13:09:14.577Z,22.50
2018-09-14T13:11:42.809Z,22.59
2018-09-14T13:14:11.084Z,22.59
2018-09-14T13:16:39.318Z,22.66
2018-09-14T13:19:07.636Z,22.84
2018-09-14T13:21:35.886Z,22.88
2018-09-14T13:24:04.347Z,23.00
2018-09-14T13:26:32.570Z,23.03
2018-09-14T13:29:00.840Z,23.04
2018-09-14T13:31:29.096Z,22.97
2018-09-14T13:33:57.405Z,22.90
2018-09-14T13:36:25.580Z,23.04
2018-09-14T13:38:53.865Z,23.06
2018-09-14T13:41:22.188Z,23.03
2018-09-14T13:43:50.448Z,23.05
2018-09-14T13:46:18.689Z,23.04
2018-09-14T13:48:46.940Z,23.06
2018-09-14T13:51:15.168Z,23.07
2018-09-14T13:53:43.450Z,23.00
2018-09-14T13:56:11.685Z,23.02
2018-09-14T13:58:40.005Z,23.16
2018-09-14T14:01:08.286Z,23.08
2018-09-14T14:03:36.541Z,23.07
2018-09-14T14:06:04.782Z,23.14
2018-09-14T14:08:33.097Z,23.27
2018-09-14T14:11:01.336Z,23.34
2018-09-14T14:13:29.561Z,23.32
2018-09-14T14:15:57.819Z,23.20
2018-09-14T14:18:26.069Z,23.25
2018-09-14T14:20:54.323Z,23.27
2018-09-14T14:23:22.556Z,23.25
2018-09-14T14:25:50.814Z,23.25
2018-09-14T14:28:19.165Z,23.33
2018-09-14T14:30:47.413Z,23.33
2018-09-14T14:33:15.737Z,23.19
2018-09-14T14:35:44.052Z,23.17
2018-09-14T14:38:12.305Z,23.21
2018-09-14T14:40:40.577Z,23.12
2018-09-14T14:43:09.160Z,22.94
2018-09-14T14:45:37.452Z,22.92
2018-09-14T14:48:05.740Z,22.94
2018-09-14T14:52:20.997Z,22.92
2018-09-14T14:54:49.237Z,23.00
2018-09-14T14:57:18.160Z,23.02
2018-09-14T14:59:46.602Z,23.02
2018-09-14T15:03:10.421Z,23.10
2018-09-14T15:07:19.078Z,22.93
2018-09-14T15:09:47.324Z,23.06
2018-09-14T15:12:15.578Z,22.98
2018-09-14T15:14:43.804Z,22.95
2018-09-14T15:17:12.049Z,22.79
2018-09-14T15:19:40.305Z,22.86
2018-09-14T15:22:09.275Z,22.98
2018-09-14T15:24:37.513Z,22.96
2018-09-14T15:27:05.779Z,23.00
2018-09-14T15:29:34.016Z,23.01
2018-09-14T15:32:02.272Z,23.02
2018-09-14T15:34:30.497Z,23.01
2018-09-14T15:36:58.752Z,23.09
2018-09-14T15:39:27.001Z,22.99
2018-09-14T15:41:55.248Z,22.95
2018-09-14T15:44:23.485Z,22.90
2018-09-14T15:46:51.714Z,22.87
2018-09-14T15:49:20.016Z,22.85
2018-09-14T15:51:48.204Z,22.82
2018-09-14T15:54:16.457Z,22.91
2018-09-14T15:56:44.736Z,22.93
2018-09-14T15:59:12.994Z,22.81
2018-09-14T16:01:41.226Z,22.76
2018-09-14T16:04:09.514Z,22.68
2018-09-14T16:06:37.757Z,22.62
2018-09-14T16:09:08.018Z,22.62
2018-09-14T16:11:36.302Z,22.64
2018-09-14T16:14:04.573Z,22.69
2018-09-14T16:16:33.280Z,22.57
2018-09-14T16:19:01.607Z,22.54
2018-09-14T16:21:29.776Z,22.51
2018-09-14T16:23:58.029Z,22.50
2018-09-14T16:26:26.261Z,22.54
2018-09-14T16:28:54.504Z,22.50
2018-09-14T16:31:22.724Z,22.48
2018-09-14T16:33:50.967Z,22.45
2018-09-14T16:36:19.204Z,22.33
2018-09-14T16:38:48.163Z,22.31
2018-09-14T16:41:16.371Z,22.30
2018-09-14T16:43:44.620Z,22.18
2018-09-14T16:46:12.845Z,22.15
2018-09-14T16:48:41.095Z,22.06
2018-09-14T16:51:09.312Z,21.99
2018-09-14T16:53:37.550Z,22.01
2018-09-14T16:56:05.780Z,22.01
2018-09-14T16:58:35.106Z,21.91
2018-09-14T17:01:03.345Z,21.79
2018-09-14T17:03:31.649Z,21.77
2018-09-14T17:05:59.856Z,21.71
2018-09-14T17:08:28.080Z,21.68
2018-09-14T17:10:56.341Z,21.73
2018-09-14T17:13:24.568Z,21.74
2018-09-14T17:15:52.821Z,21.72
2018-09-14T17:18:21.068Z,21.71
2018-09-14T17:20:49.321Z,21.71
2018-09-14T17:23:17.553Z,21.70
2018-09-14T17:25:45.808Z,21.69
2018-09-14T17:28:14.036Z,21.66
2018-09-14T17:30:42.293Z,21.62
2018-09-14T17:33:10.521Z,21.57
2018-09-14T17:35:38.833Z,21.52
2018-09-14T17:38:07.036Z,21.49
2018-09-14T17:40:35.309Z,21.31
2018-09-14T17:43:03.540Z,21.24
2018-09-14T17:45:31.784Z,21.23
2018-09-14T17:48:00.009Z,21.21
2018-09-14T17:50:28.304Z,21.22
2018-09-14T17:52:56.553Z,21.17
2018-09-14T17:55:24.801Z,21.14
2018-09-14T17:57:53.044Z,21.07
2018-09-14T18:00:21.312Z,21.02
2018-09-14T18:02:49.524Z,20.98
2018-09-14T18:05:17.749Z,20.97
2018-09-14T18:07:46.005Z,20.93
2018-09-14T18:10:14.297Z,20.86
2018-09-14T18:12:42.537Z,20.81
2018-09-14T18:15:10.804Z,20.76
2018-09-14T18:17:39.049Z,20.71
2018-09-14T18:20:07.277Z,20.68
2018-09-14T18:22:35.543Z,20.65
2018-09-14T18:25:03.765Z,20.65
2018-09-14T18:27:32.081Z,20.57
2018-09-14T18:30:00.237Z,20.54
2018-09-14T18:32:28.547Z,20.50
2018-09-14T18:34:56.738Z,20.41
2018-09-14T18:37:24.988Z,20.34
2018-09-14T18:39:53.212Z,20.32
2018-09-14T18:42:21.454Z,20.28
2018-09-14T18:44:49.678Z,20.14
2018-09-14T18:47:17.952Z,20.02
2018-09-14T18:49:46.206Z,20.01
2018-09-14T18:52:14.452Z,19.97
2018-09-14T18:54:42.696Z,19.92
2018-09-14T18:57:10.954Z,19.82
2018-09-14T18:59:39.237Z,19.80
2018-09-14T19:02:07.577Z,19.73
2018-09-14T19:04:35.872Z,19.70
2018-09-14T19:07:04.096Z,19.57
2018-09-14T19:09:32.350Z,19.39
2018-09-14T19:12:01.376Z,19.27
2018-09-14T19:14:29.884Z,19.25
2018-09-14T19:16:58.126Z,19.25
2018-09-14T19:19:26.384Z,19.16
2018-09-14T19:21:54.689Z,19.03
2018-09-14T19:24:23.055Z,18.96
2018-09-14T19:26:51.371Z,18.95
2018-09-14T19:29:19.627Z,18.94
2018-09-14T19:31:47.855Z,18.93
2018-09-14T19:34:16.104Z,18.94
2018-09-14T19:36:44.341Z,19.01
2018-09-14T19:39:13.578Z,19.02
2018-09-14T19:41:41.877Z,19.04
2018-09-14T19:44:10.189Z,18.99
2018-09-14T19:46:38.441Z,18.93
2018-09-14T19:49:06.688Z,18.85
2018-09-14T19:51:34.938Z,18.77
2018-09-14T19:54:03.211Z,18.70
2018-09-14T19:56:31.441Z,18.71
2018-09-14T19:58:59.736Z,18.70
2018-09-14T20:01:27.975Z,18.64
2018-09-14T20:03:56.280Z,18.69
2018-09-14T20:06:24.576Z,18.70
2018-09-14T20:08:53.080Z,18.71
2018-09-14T20:11:21.628Z,18.71
2018-09-14T20:13:49.913Z,18.78
2018-09-14T20:16:18.169Z,18.82
2018-09-14T20:18:46.386Z,18.85
2018-09-14T20:21:14.639Z,18.80
2018-09-14T20:23:42.868Z,18.83
2018-09-14T20:26:11.391Z,18.90
2018-09-14T20:28:39.656Z,18.84
2018-09-14T20:31:07.977Z,18.89
2018-09-14T20:33:36.245Z,18.86
2018-09-14T20:36:04.510Z,18.83
2018-09-14T20:38:32.761Z,18.79
2018-09-14T20:41:01.066Z,18.79
2018-09-14T20:43:29.298Z,18.77
2018-09-14T20:45:57.537Z,18.71
2018-09-14T20:48:25.916Z,18.64
2018-09-14T20:50:54.557Z,18.62
2018-09-14T20:53:22.784Z,18.60
2018-09-14T20:55:51.016Z,18.63
2018-09-14T20:58:19.245Z,18.64
2018-09-14T21:00:47.516Z,18.52
2018-09-14T21:03:15.766Z,18.53
2018-09-14T21:05:44.040Z,18.52
2018-09-14T21:08:12.293Z,18.52
2018-09-14T21:10:40.572Z,18.56
2018-09-14T21:13:08.800Z,18.58
2018-09-14T21:15:37.073Z,18.63
2018-09-14T21:18:05.325Z,18.63
2018-09-14T21:20:33.585Z,18.65
2018-09-14T21:23:01.924Z,18.68
2018-09-14T21:25:30.197Z,18.76
2018-09-14T21:27:58.447Z,18.78
2018-09-14T21:30:26.668Z,18.85
2018-09-14T21:32:54.937Z,18.84
2018-09-14T21:35:23.174Z,18.84
2018-09-14T21:37:51.424Z,18.81
2018-09-14T21:40:19.649Z,18.80
2018-09-14T21:42:47.892Z,18.83
2018-09-14T21:45:17.064Z,18.80
2018-09-14T21:47:45.580Z,18.77
2018-09-14T21:50:13.816Z,18.81
2018-09-14T21:52:42.249Z,18.84
2018-09-14T21:55:10.494Z,18.84
2018-09-14T21:57:38.734Z,18.88
2018-09-14T22:00:13.280Z,18.81
2018-09-14T22:02:41.514Z,18.73
2018-09-14T22:05:09.761Z,18.73
2018-09-14T22:07:38.012Z,18.72
2018-09-14T22:10:06.408Z,18.67
2018-09-14T22:12:34.676Z,18.62
2018-09-14T22:15:02.889Z,18.59
2018-09-14T22:17:31.136Z,18.49
2018-09-14T22:19:59.396Z,18.49
2018-09-14T22:22:27.605Z,18.47
2018-09-14T22:24:56.460Z,18.42
2018-09-14T22:27:24.692Z,18.44
2018-09-14T22:29:52.929Z,18.45
2018-09-14T22:32:21.161Z,18.46
2018-09-14T22:34:49.420Z,18.40
2018-09-14T22:37:17.641Z,18.34
2018-09-14T22:39:45.879Z,18.34
2018-09-14T22:42:14.100Z,18.32
2018-09-14T22:44:42.332Z,18.26
2018-09-14T22:47:10.552Z,18.14
2018-09-14T22:49:38.772Z,18.20
2018-09-14T22:52:07.028Z,18.29
2018-09-14T22:54:35.265Z,18.33
2018-09-14T22:57:03.469Z,18.35
2018-09-14T22:59:31.749Z,18.40
2018-09-14T23:01:59.989Z,18.34
2018-09-14T23:04:28.240Z,18.28
2018-09-14T23:06:56.464Z,18.26
2018-09-14T23:09:24.770Z,18.25
2018-09-14T23:11:52.953Z,18.35
2018-09-14T23:14:21.204Z,18.38
2018-09-14T23:16:49.420Z,18.37
2018-09-14T23:19:17.663Z,18.41
2018-09-14T23:21:45.905Z,18.49
2018-09-14T23:24:14.153Z,18.47
2018-09-14T23:26:42.394Z,18.42
2018-09-14T23:29:10.657Z,18.37
2018-09-14T23:31:38.910Z,18.38
2018-09-14T23:34:07.124Z,18.29
2018-09-14T23:36:35.372Z,18.18
2018-09-14T23:39:04.908Z,18.10
2018-09-14T23:41:33.157Z,18.04
2018-09-14T23:44:01.397Z,17.95
2018-09-14T23:46:29.641Z,17.87
2018-09-14T23:48:57.865Z,17.81
2018-09-14T23:51:26.229Z,17.70
2018-09-14T23:53:54.467Z,17.58
2018-09-14T23:56:22.720Z,17.66
2018-09-14T23:58:50.952Z,17.75
